createdAt,value
2023-03-07T00:00:25.704Z,948.53
2023-03-07T00:01:21.082Z,948.55
2023-03-07T00:02:16.709Z,948.55
2023-03-07T00:03:11.865Z,948.59
2023-03-07T00:04:07.259Z,948.59
2023-03-07T00:05:03.152Z,948.59
2023-03-07T00:05:58.636Z,948.57
2023-03-07T00:06:54.340Z,948.57
2023-03-07T00:07:49.379Z,948.55
2023-03-07T00:08:44.679Z,948.51
2023-03-07T00:09:40.506Z,948.51
2023-03-07T00:10:35.837Z,948.49
2023-03-07T00:11:31.234Z,948.45
2023-03-07T00:12:27.519Z,948.47
2023-03-07T00:13:22.697Z,948.47
2023-03-07T00:14:18.592Z,948.49
2023-03-07T00:15:13.719Z,948.47
2023-03-07T00:16:09.359Z,948.45
2023-03-07T00:17:04.887Z,948.47
2023-03-07T00:18:00.205Z,948.45
2023-03-07T00:18:56.121Z,948.43
2023-03-07T00:19:51.282Z,948.41
2023-03-07T00:20:46.739Z,948.41
2023-03-07T00:21:42.233Z,948.37
2023-03-07T00:22:37.400Z,948.39
2023-03-07T00:23:32.571Z,948.37
2023-03-07T00:24:28.965Z,948.39
2023-03-07T00:25:24.176Z,948.39
2023-03-07T00:26:20.101Z,948.37
2023-03-07T00:27:15.113Z,948.35
2023-03-07T00:28:10.287Z,948.35
2023-03-07T00:29:06.314Z,948.39
2023-03-07T00:30:01.355Z,948.37
2023-03-07T00:30:57.236Z,948.35
2023-03-07T00:31:52.417Z,948.35
2023-03-07T00:32:47.818Z,948.35
2023-03-07T00:33:43.528Z,948.37
2023-03-07T00:34:38.741Z,948.35
2023-03-07T00:35:33.860Z,948.35
2023-03-07T00:36:29.148Z,948.33
2023-03-07T00:37:24.264Z,948.29
2023-03-07T00:38:19.985Z,948.31
2023-03-07T00:39:15.170Z,948.29
2023-03-07T00:40:11.075Z,948.31
2023-03-07T00:41:06.385Z,948.29
2023-03-07T00:42:01.606Z,948.31
2023-03-07T00:42:57.314Z,948.28
2023-03-07T00:43:52.522Z,948.29
2023-03-07T00:44:47.694Z,948.29
2023-03-07T00:45:44.191Z,948.29
2023-03-07T00:46:39.225Z,948.28
2023-03-07T00:47:35.118Z,948.29
2023-03-07T00:48:30.278Z,948.26
2023-03-07T00:49:25.531Z,948.28
2023-03-07T00:50:21.456Z,948.26
2023-03-07T00:51:16.497Z,948.24
2023-03-07T00:52:11.631Z,948.22
2023-03-07T00:53:06.824Z,948.22
2023-03-07T00:54:01.943Z,948.18
2023-03-07T00:54:57.002Z,948.20
2023-03-07T00:55:52.345Z,948.20
2023-03-07T00:56:47.281Z,948.20
2023-03-07T00:57:42.327Z,948.20
2023-03-07T00:58:37.387Z,948.16
2023-03-07T00:59:32.434Z,948.12
2023-03-07T01:00:27.527Z,948.16
2023-03-07T01:01:22.541Z,948.16
2023-03-07T01:02:17.624Z,948.14
2023-03-07T01:03:12.623Z,948.14
2023-03-07T01:05:39.279Z,948.10
2023-03-07T01:06:31.602Z,948.08
2023-03-07T01:07:26.744Z,948.08
2023-03-07T01:08:21.935Z,948.08
2023-03-07T01:09:17.081Z,948.06
2023-03-07T01:10:12.414Z,948.04
2023-03-07T01:11:07.437Z,948.02
2023-03-07T01:12:02.712Z,948.00
2023-03-07T01:12:57.849Z,948.02
2023-03-07T01:13:53.111Z,948.00
2023-03-07T01:14:48.222Z,948.00
2023-03-07T01:15:43.801Z,948.00
2023-03-07T01:16:38.749Z,947.98
2023-03-07T01:17:34.004Z,947.96
2023-03-07T01:18:29.006Z,947.96
2023-03-07T01:19:24.283Z,947.96
2023-03-07T01:20:19.517Z,947.96
2023-03-07T01:21:14.554Z,947.96
2023-03-07T01:22:09.667Z,947.94
2023-03-07T01:23:04.957Z,947.94
2023-03-07T01:24:00.129Z,947.92
2023-03-07T01:24:55.660Z,947.92
2023-03-07T01:25:50.632Z,947.92
2023-03-07T01:26:45.808Z,947.94
2023-03-07T01:27:40.939Z,947.96
2023-03-07T01:28:36.114Z,947.98
2023-03-07T01:29:31.251Z,948.00
2023-03-07T01:30:26.681Z,947.98
2023-03-07T01:31:21.599Z,947.98
2023-03-07T01:32:16.783Z,948.02
2023-03-07T01:33:11.981Z,948.02
2023-03-07T01:34:07.168Z,948.02
2023-03-07T01:35:02.467Z,948.04
2023-03-07T01:35:57.853Z,948.00
2023-03-07T01:36:52.826Z,948.00
2023-03-07T01:37:47.980Z,947.98
2023-03-07T01:38:43.132Z,947.96
2023-03-07T01:39:38.426Z,947.96
2023-03-07T01:40:33.452Z,947.96
2023-03-07T01:41:28.586Z,947.94
2023-03-07T01:42:24.001Z,947.92
2023-03-07T01:43:18.966Z,947.90
2023-03-07T01:44:14.123Z,947.88
2023-03-07T01:45:09.411Z,947.84
2023-03-07T01:46:04.652Z,947.84
2023-03-07T01:46:59.729Z,947.86
2023-03-07T01:47:55.007Z,947.86
2023-03-07T01:48:50.024Z,947.82
2023-03-07T01:49:45.485Z,947.84
2023-03-07T01:50:40.494Z,947.82
2023-03-07T01:51:35.666Z,947.82
2023-03-07T01:52:30.810Z,947.80
2023-03-07T01:53:25.968Z,947.82
2023-03-07T01:54:21.097Z,947.80
2023-03-07T01:55:16.552Z,947.82
2023-03-07T01:56:11.676Z,947.82
2023-03-07T01:57:06.866Z,947.80
2023-03-07T01:58:02.015Z,947.82
2023-03-07T01:58:57.269Z,947.80
2023-03-07T01:59:52.572Z,947.76
2023-03-07T02:00:47.404Z,947.76
2023-03-07T02:01:42.567Z,947.78
2023-03-07T02:02:37.716Z,947.78
2023-03-07T02:03:32.961Z,947.78
2023-03-07T02:04:28.158Z,947.80
2023-03-07T02:05:23.176Z,947.78
2023-03-07T02:06:18.450Z,947.76
2023-03-07T02:07:13.446Z,947.82
2023-03-07T02:08:08.838Z,947.80
2023-03-07T02:09:03.825Z,947.78
2023-03-07T02:09:59.261Z,947.78
2023-03-07T02:10:54.259Z,947.76
2023-03-07T02:11:49.407Z,947.74
2023-03-07T02:12:44.540Z,947.73
2023-03-07T02:13:39.814Z,947.71
2023-03-07T02:14:34.953Z,947.71
2023-03-07T02:15:30.242Z,947.69
2023-03-07T02:16:25.461Z,947.69
2023-03-07T02:17:20.523Z,947.71
2023-03-07T02:18:15.624Z,947.69
2023-03-07T02:19:10.782Z,947.67
2023-03-07T02:20:06.201Z,947.67
2023-03-07T02:21:01.080Z,947.63
2023-03-07T02:21:56.213Z,947.63
2023-03-07T02:22:51.603Z,947.61
2023-03-07T02:23:46.581Z,947.63
2023-03-07T02:24:41.748Z,947.63
2023-03-07T02:25:37.079Z,947.63
2023-03-07T02:26:32.223Z,947.63
2023-03-07T02:27:27.239Z,947.61
2023-03-07T02:28:22.378Z,947.61
2023-03-07T02:29:17.528Z,947.55
2023-03-07T02:30:12.972Z,947.53
2023-03-07T02:31:08.028Z,947.57
2023-03-07T02:32:03.304Z,947.53
2023-03-07T02:32:58.586Z,947.53
2023-03-07T02:33:53.717Z,947.53
2023-03-07T02:34:48.861Z,947.51
2023-03-07T02:35:44.348Z,947.53
2023-03-07T02:36:39.453Z,947.51
2023-03-07T02:37:34.638Z,947.51
2023-03-07T02:38:29.847Z,947.49
2023-03-07T02:39:24.887Z,947.45
2023-03-07T02:40:20.193Z,947.47
2023-03-07T02:41:15.191Z,947.43
2023-03-07T02:42:10.345Z,947.39
2023-03-07T02:43:05.639Z,947.41
2023-03-07T02:44:00.909Z,947.41
2023-03-07T02:44:56.140Z,947.37
2023-03-07T02:45:51.134Z,947.37
2023-03-07T02:46:46.527Z,947.35
2023-03-07T02:47:41.527Z,947.35
2023-03-07T02:48:36.835Z,947.35
2023-03-07T02:49:31.998Z,947.33
2023-03-07T02:50:27.309Z,947.35
2023-03-07T02:51:22.282Z,947.35
2023-03-07T02:52:17.479Z,947.35
2023-03-07T02:53:12.599Z,947.35
2023-03-07T02:54:07.872Z,947.35
2023-03-07T02:55:03.214Z,947.35
2023-03-07T02:55:58.216Z,947.37
2023-03-07T02:56:53.443Z,947.33
2023-03-07T02:57:48.725Z,947.31
2023-03-07T02:58:43.714Z,947.33
2023-03-07T02:59:39.058Z,947.35
2023-03-07T03:00:34.035Z,947.31
2023-03-07T03:01:29.360Z,947.31
2023-03-07T03:02:24.535Z,947.31
2023-03-07T03:03:19.690Z,947.31
2023-03-07T03:04:14.912Z,947.33
2023-03-07T03:05:10.142Z,947.33
2023-03-07T03:06:05.126Z,947.31
2023-03-07T03:07:00.555Z,947.31
2023-03-07T03:07:55.609Z,947.31
2023-03-07T03:08:50.874Z,947.33
2023-03-07T03:09:46.058Z,947.31
2023-03-07T03:10:41.244Z,947.33
2023-03-07T03:11:36.359Z,947.33
2023-03-07T03:12:31.546Z,947.33
2023-03-07T03:13:26.678Z,947.35
2023-03-07T03:14:21.966Z,947.31
2023-03-07T03:15:17.133Z,947.35
2023-03-07T03:16:12.280Z,947.37
2023-03-07T03:17:07.556Z,947.37
2023-03-07T03:18:02.752Z,947.39
2023-03-07T03:18:57.847Z,947.41
2023-03-07T03:19:53.171Z,947.39
2023-03-07T03:20:48.165Z,947.43
2023-03-07T03:21:43.444Z,947.39
2023-03-07T03:22:38.635Z,947.41
2023-03-07T03:23:33.746Z,947.39
2023-03-07T03:24:28.867Z,947.39
2023-03-07T03:25:24.342Z,947.37
2023-03-07T03:26:19.214Z,947.39
2023-03-07T03:27:14.499Z,947.41
2023-03-07T03:28:09.512Z,947.39
2023-03-07T03:29:04.916Z,947.37
2023-03-07T03:30:00.127Z,947.39
2023-03-07T03:30:55.119Z,947.39
2023-03-07T03:31:50.247Z,947.41
2023-03-07T03:32:45.434Z,947.39
2023-03-07T03:33:40.566Z,947.37
2023-03-07T03:34:35.861Z,947.39
2023-03-07T03:35:31.039Z,947.37
2023-03-07T03:36:26.197Z,947.37
2023-03-07T03:37:21.451Z,947.35
2023-03-07T03:38:16.660Z,947.35
2023-03-07T03:39:11.789Z,947.35
2023-03-07T03:40:07.119Z,947.35
2023-03-07T03:41:02.111Z,947.35
2023-03-07T03:41:57.398Z,947.37
2023-03-07T03:42:52.657Z,947.35
2023-03-07T03:43:47.794Z,947.33
2023-03-07T03:44:43.076Z,947.33
2023-03-07T03:45:38.146Z,947.35
2023-03-07T03:46:33.306Z,947.33
2023-03-07T03:47:28.615Z,947.35
2023-03-07T03:48:23.640Z,947.33
2023-03-07T03:49:19.102Z,947.35
2023-03-07T03:50:14.130Z,947.37
2023-03-07T03:51:09.398Z,947.35
2023-03-07T03:52:04.539Z,947.31
2023-03-07T03:52:59.710Z,947.31
2023-03-07T03:53:54.849Z,947.33
2023-03-07T03:54:49.999Z,947.31
2023-03-07T03:55:45.161Z,947.33
2023-03-07T03:56:40.320Z,947.33
2023-03-07T03:57:35.584Z,947.31
2023-03-07T03:58:30.779Z,947.35
2023-03-07T03:59:26.112Z,947.33
2023-03-07T04:00:21.306Z,947.31
2023-03-07T04:01:16.297Z,947.35
2023-03-07T04:02:11.664Z,947.35
2023-03-07T04:03:06.828Z,947.35
2023-03-07T04:04:01.998Z,947.37
2023-03-07T04:04:57.120Z,947.37
2023-03-07T04:05:52.300Z,947.37
2023-03-07T04:06:47.463Z,947.35
2023-03-07T04:07:42.855Z,947.35
2023-03-07T04:08:37.882Z,947.35
2023-03-07T04:09:33.185Z,947.33
2023-03-07T04:10:28.335Z,947.35
2023-03-07T04:11:23.643Z,947.33
2023-03-07T04:12:18.773Z,947.37
2023-03-07T04:13:13.958Z,947.35
2023-03-07T04:14:09.118Z,947.35
2023-03-07T04:15:04.270Z,947.35
2023-03-07T04:15:59.432Z,947.35
2023-03-07T04:16:54.573Z,947.35
2023-03-07T04:17:49.949Z,947.35
2023-03-07T04:18:45.281Z,947.37
2023-03-07T04:19:40.149Z,947.35
2023-03-07T04:20:35.342Z,947.29
2023-03-07T04:21:30.462Z,947.33
2023-03-07T04:22:25.749Z,947.29
2023-03-07T04:23:20.899Z,947.29
2023-03-07T04:24:16.205Z,947.31
2023-03-07T04:25:11.333Z,947.29
2023-03-07T04:26:06.593Z,947.31
2023-03-07T04:27:01.734Z,947.31
2023-03-07T04:27:57.163Z,947.35
2023-03-07T04:28:52.360Z,947.33
2023-03-07T04:29:47.354Z,947.37
2023-03-07T04:30:42.510Z,947.35
2023-03-07T04:31:37.857Z,947.35
2023-03-07T04:32:33.036Z,947.37
2023-03-07T04:33:28.188Z,947.33
2023-03-07T04:34:23.489Z,947.33
2023-03-07T04:35:18.517Z,947.31
2023-03-07T04:36:13.649Z,947.29
2023-03-07T04:37:08.917Z,947.27
2023-03-07T04:38:04.208Z,947.27
2023-03-07T04:38:59.413Z,947.27
2023-03-07T04:39:54.384Z,947.26
2023-03-07T04:40:49.667Z,947.26
2023-03-07T04:41:44.753Z,947.24
2023-03-07T04:42:40.042Z,947.22
2023-03-07T04:43:35.211Z,947.24
2023-03-07T04:44:30.650Z,947.24
2023-03-07T04:45:25.612Z,947.22
2023-03-07T04:46:20.865Z,947.22
2023-03-07T04:47:15.993Z,947.20
2023-03-07T04:48:11.406Z,947.20
2023-03-07T04:49:06.592Z,947.20
2023-03-07T04:50:01.601Z,947.20
2023-03-07T04:50:56.773Z,947.16
2023-03-07T04:51:52.079Z,947.20
2023-03-07T04:52:47.223Z,947.18
2023-03-07T04:53:42.421Z,947.18
2023-03-07T04:54:37.568Z,947.22
2023-03-07T04:55:32.866Z,947.18
2023-03-07T04:56:28.044Z,947.22
2023-03-07T04:57:23.232Z,947.20
2023-03-07T04:58:18.500Z,947.20
2023-03-07T04:59:13.698Z,947.18
2023-03-07T05:00:08.827Z,947.16
2023-03-07T05:01:04.108Z,947.16
2023-03-07T05:01:59.250Z,947.16
2023-03-07T05:02:54.395Z,947.16
2023-03-07T05:03:49.736Z,947.12
2023-03-07T05:04:44.752Z,947.16
2023-03-07T05:05:39.910Z,947.12
2023-03-07T05:06:35.098Z,947.08
2023-03-07T05:07:30.236Z,947.12
2023-03-07T05:08:25.530Z,947.12
2023-03-07T05:09:20.578Z,947.06
2023-03-07T05:10:15.736Z,947.12
2023-03-07T05:11:10.884Z,947.10
2023-03-07T05:12:06.151Z,947.10
2023-03-07T05:13:01.399Z,947.08
2023-03-07T05:13:56.482Z,947.06
2023-03-07T05:14:51.600Z,947.10
2023-03-07T05:15:46.788Z,947.06
2023-03-07T05:16:41.928Z,947.06
2023-03-07T05:17:37.225Z,947.08
2023-03-07T05:18:32.677Z,947.06
2023-03-07T05:19:27.608Z,947.06
2023-03-07T05:20:22.743Z,947.06
2023-03-07T05:21:18.015Z,947.04
2023-03-07T05:22:13.026Z,947.04
2023-03-07T05:23:08.299Z,947.06
2023-03-07T05:24:03.697Z,947.08
2023-03-07T05:24:58.687Z,947.04
2023-03-07T05:25:53.899Z,947.00
2023-03-07T05:26:49.097Z,947.02
2023-03-07T05:27:44.083Z,947.02
2023-03-07T05:28:39.614Z,946.98
2023-03-07T05:29:34.627Z,947.02
2023-03-07T05:30:29.856Z,946.98
2023-03-07T05:31:25.192Z,946.96
2023-03-07T05:32:20.248Z,946.98
2023-03-07T05:33:15.532Z,946.96
2023-03-07T05:34:10.558Z,946.92
2023-03-07T05:35:05.841Z,946.98
2023-03-07T05:36:01.091Z,946.92
2023-03-07T05:36:56.330Z,946.96
2023-03-07T05:37:51.515Z,946.92
2023-03-07T05:38:47.084Z,946.92
2023-03-07T05:39:42.188Z,946.92
2023-03-07T05:40:37.249Z,946.96
2023-03-07T05:41:32.466Z,946.94
2023-03-07T05:42:27.688Z,946.94
2023-03-07T05:43:23.156Z,946.96
2023-03-07T05:44:18.250Z,946.98
2023-03-07T05:45:13.302Z,946.98
2023-03-07T05:46:08.732Z,946.96
2023-03-07T05:47:03.757Z,946.98
2023-03-07T05:47:59.158Z,946.98
2023-03-07T05:48:54.358Z,946.98
2023-03-07T05:49:49.479Z,946.98
2023-03-07T05:50:44.672Z,946.96
2023-03-07T05:51:39.922Z,946.96
2023-03-07T05:52:35.097Z,946.94
2023-03-07T05:53:30.471Z,946.94
2023-03-07T05:54:25.551Z,946.92
2023-03-07T05:55:20.882Z,946.92
2023-03-07T05:56:16.217Z,946.90
2023-03-07T05:57:11.342Z,946.90
2023-03-07T05:58:06.769Z,946.90
2023-03-07T05:59:02.055Z,946.90
2023-03-07T05:59:57.187Z,946.92
2023-03-07T06:00:52.478Z,946.90
2023-03-07T06:01:47.735Z,946.90
2023-03-07T06:02:43.236Z,946.88
2023-03-07T06:03:38.627Z,946.92
2023-03-07T06:04:33.840Z,946.92
2023-03-07T06:05:29.162Z,946.94
2023-03-07T06:06:24.466Z,946.94
2023-03-07T06:07:19.977Z,946.98
2023-03-07T06:08:15.353Z,946.94
2023-03-07T06:09:11.094Z,946.94
2023-03-07T06:10:06.525Z,946.92
2023-03-07T06:11:01.855Z,946.92
2023-03-07T06:11:57.086Z,946.94
2023-03-07T06:12:52.428Z,946.96
2023-03-07T06:13:47.793Z,946.96
2023-03-07T06:14:43.132Z,946.96
2023-03-07T06:15:38.593Z,946.96
2023-03-07T06:16:33.773Z,946.94
2023-03-07T06:17:29.274Z,946.94
2023-03-07T06:18:24.481Z,946.90
2023-03-07T06:19:19.847Z,946.90
2023-03-07T06:20:15.110Z,946.88
2023-03-07T06:21:10.583Z,946.90
2023-03-07T06:22:05.773Z,946.90
2023-03-07T06:23:01.396Z,946.94
2023-03-07T06:23:56.619Z,946.90
2023-03-07T06:24:51.937Z,946.92
2023-03-07T06:25:47.250Z,946.90
2023-03-07T06:26:42.640Z,946.92
2023-03-07T06:27:38.266Z,946.92
2023-03-07T06:28:33.340Z,946.90
2023-03-07T06:29:28.677Z,946.88
2023-03-07T06:30:24.132Z,946.90
2023-03-07T06:31:19.550Z,946.94
2023-03-07T06:32:14.884Z,946.90
2023-03-07T06:33:10.181Z,946.92
2023-03-07T06:34:05.464Z,946.88
2023-03-07T06:35:00.859Z,946.90
2023-03-07T06:35:56.266Z,946.90
2023-03-07T06:36:51.666Z,946.92
2023-03-07T06:37:47.246Z,946.94
2023-03-07T06:38:42.761Z,946.92
2023-03-07T06:39:37.883Z,946.92
2023-03-07T06:40:32.981Z,946.96
2023-03-07T06:41:28.029Z,946.92
2023-03-07T06:42:23.081Z,946.90
2023-03-07T06:43:18.301Z,946.90
2023-03-07T06:44:13.167Z,946.90
2023-03-07T06:45:08.450Z,946.86
2023-03-07T06:46:03.455Z,946.80
2023-03-07T06:47:02.173Z,946.80
2023-03-07T06:47:57.314Z,946.78
2023-03-07T06:48:52.374Z,946.78
2023-03-07T06:49:47.340Z,946.76
2023-03-07T06:50:42.374Z,946.78
2023-03-07T06:51:38.094Z,946.78
2023-03-07T06:52:32.733Z,946.76
2023-03-07T06:53:27.628Z,946.76
2023-03-07T06:54:22.701Z,946.74
2023-03-07T06:55:17.980Z,946.71
2023-03-07T06:56:14.158Z,946.72
2023-03-07T06:57:09.615Z,946.72
2023-03-07T06:58:05.392Z,946.72
2023-03-07T06:59:00.816Z,946.71
2023-03-07T06:59:56.404Z,946.72
2023-03-07T07:00:52.002Z,946.69
2023-03-07T07:01:47.541Z,946.69
2023-03-07T07:02:43.547Z,946.69
2023-03-07T07:03:38.609Z,946.69
2023-03-07T07:04:34.185Z,946.74
2023-03-07T07:05:30.212Z,946.72
2023-03-07T07:06:25.529Z,946.72
2023-03-07T07:07:21.250Z,946.72
2023-03-07T07:08:17.349Z,946.69
2023-03-07T07:09:13.003Z,946.72
2023-03-07T07:10:08.669Z,946.71
2023-03-07T07:11:04.236Z,946.69
2023-03-07T07:11:59.674Z,946.74
2023-03-07T07:12:55.559Z,946.74
2023-03-07T07:13:50.836Z,946.78
2023-03-07T07:14:46.769Z,946.72
2023-03-07T07:15:42.069Z,946.76
2023-03-07T07:16:37.417Z,946.76
2023-03-07T07:17:33.322Z,946.74
2023-03-07T07:18:28.570Z,946.82
2023-03-07T07:19:23.984Z,946.74
2023-03-07T07:20:20.389Z,946.80
2023-03-07T07:21:15.778Z,946.80
2023-03-07T07:22:11.664Z,946.80
2023-03-07T07:23:06.959Z,946.80
2023-03-07T07:24:02.411Z,946.80
2023-03-07T07:24:58.185Z,946.78
2023-03-07T07:25:53.646Z,946.80
2023-03-07T07:26:49.620Z,946.78
2023-03-07T07:27:44.913Z,946.78
2023-03-07T07:28:40.186Z,946.82
2023-03-07T07:29:36.188Z,946.80
2023-03-07T07:30:31.435Z,946.82
2023-03-07T07:31:26.935Z,946.86
2023-03-07T07:32:23.369Z,946.86
2023-03-07T07:33:18.722Z,946.86
2023-03-07T07:34:14.633Z,946.88
2023-03-07T07:35:10.035Z,946.84
2023-03-07T07:36:05.626Z,946.84
2023-03-07T07:37:01.401Z,946.86
2023-03-07T07:37:56.645Z,946.88
2023-03-07T07:38:52.641Z,946.88
2023-03-07T07:39:47.906Z,946.88
2023-03-07T07:40:43.473Z,946.88
2023-03-07T07:41:39.046Z,946.86
2023-03-07T07:42:34.488Z,946.86
2023-03-07T07:43:29.900Z,946.84
2023-03-07T07:44:25.390Z,946.82
2023-03-07T07:45:21.112Z,946.80
2023-03-07T07:46:16.631Z,946.82
2023-03-07T07:47:12.118Z,946.80
2023-03-07T07:48:07.882Z,946.78
2023-03-07T07:49:03.275Z,946.74
2023-03-07T07:49:59.331Z,946.76
2023-03-07T07:50:54.733Z,946.72
2023-03-07T07:51:50.252Z,946.76
2023-03-07T07:52:45.848Z,946.72
2023-03-07T07:53:41.329Z,946.74
2023-03-07T07:54:36.957Z,946.78
2023-03-07T07:55:33.116Z,946.76
2023-03-07T07:56:28.517Z,946.74
2023-03-07T07:57:24.440Z,946.76
2023-03-07T07:58:19.848Z,946.74
2023-03-07T07:59:15.438Z,946.71
2023-03-07T08:00:10.768Z,946.63
2023-03-07T08:01:06.305Z,946.59
2023-03-07T08:02:03.046Z,946.63
2023-03-07T08:02:58.367Z,946.63
2023-03-07T08:03:53.957Z,946.65
2023-03-07T08:04:49.699Z,946.61
2023-03-07T08:05:45.173Z,946.65
2023-03-07T08:06:40.784Z,946.63
2023-03-07T08:07:36.383Z,946.65
2023-03-07T08:08:32.020Z,946.67
2023-03-07T08:09:27.308Z,946.69
2023-03-07T08:10:22.773Z,946.71
2023-03-07T08:11:17.942Z,946.69
2023-03-07T08:12:13.489Z,946.71
2023-03-07T08:13:08.380Z,946.72
2023-03-07T08:14:07.590Z,946.71
2023-03-07T08:15:02.956Z,946.74
2023-03-07T08:15:58.467Z,946.72
2023-03-07T08:16:54.522Z,946.69
2023-03-07T08:17:49.696Z,946.71
2023-03-07T08:18:45.061Z,946.67
2023-03-07T08:19:41.693Z,946.72
2023-03-07T08:20:37.272Z,946.72
2023-03-07T08:21:33.208Z,946.69
2023-03-07T08:22:28.453Z,946.69
2023-03-07T08:23:23.898Z,946.69
2023-03-07T08:24:24.937Z,946.69
2023-03-07T08:25:16.435Z,946.67
2023-03-07T08:26:11.180Z,946.67
2023-03-07T08:27:06.763Z,946.69
2023-03-07T08:28:02.110Z,946.69
2023-03-07T08:28:58.068Z,946.71
2023-03-07T08:29:53.535Z,946.71
2023-03-07T08:30:49.110Z,946.71
2023-03-07T08:31:45.469Z,946.63
2023-03-07T08:32:40.877Z,946.61
2023-03-07T08:33:36.878Z,946.63
2023-03-07T08:34:32.275Z,946.61
2023-03-07T08:35:27.688Z,946.61
2023-03-07T08:36:23.661Z,946.63
2023-03-07T08:37:18.982Z,946.65
2023-03-07T08:38:14.856Z,946.71
2023-03-07T08:39:10.164Z,946.69
2023-03-07T08:40:05.571Z,946.65
2023-03-07T08:41:01.525Z,946.59
2023-03-07T08:41:56.860Z,946.55
2023-03-07T08:42:52.308Z,946.59
2023-03-07T08:43:48.592Z,946.59
2023-03-07T08:44:44.029Z,946.57
2023-03-07T08:45:40.071Z,946.55
2023-03-07T08:46:35.575Z,946.51
2023-03-07T08:47:30.814Z,946.51
2023-03-07T08:48:26.459Z,946.51
2023-03-07T08:49:21.928Z,946.51
2023-03-07T08:50:17.791Z,946.49
2023-03-07T08:51:13.493Z,946.49
2023-03-07T08:52:08.604Z,946.47
2023-03-07T08:53:04.405Z,946.45
2023-03-07T08:53:59.796Z,946.45
2023-03-07T08:54:55.249Z,946.45
2023-03-07T08:55:51.393Z,946.49
2023-03-07T08:56:47.128Z,946.45
2023-03-07T08:57:42.819Z,946.41
2023-03-07T08:58:38.387Z,946.41
2023-03-07T08:59:33.945Z,946.41
2023-03-07T09:00:29.686Z,946.37
2023-03-07T09:01:25.064Z,946.33
2023-03-07T09:02:20.840Z,946.29
2023-03-07T09:03:16.335Z,946.25
2023-03-07T09:04:11.612Z,946.29
2023-03-07T09:05:07.492Z,946.27
2023-03-07T09:06:02.940Z,946.27
2023-03-07T09:07:00.054Z,946.27
2023-03-07T09:07:54.675Z,946.27
2023-03-07T09:08:50.111Z,946.31
2023-03-07T09:09:46.020Z,946.31
2023-03-07T09:10:41.429Z,946.27
2023-03-07T09:11:37.168Z,946.27
2023-03-07T09:12:32.610Z,946.25
2023-03-07T09:13:28.150Z,946.22
2023-03-07T09:14:23.784Z,946.27
2023-03-07T09:15:18.857Z,946.27
2023-03-07T09:16:14.173Z,946.25
2023-03-07T09:17:09.061Z,946.24
2023-03-07T09:18:04.178Z,946.27
2023-03-07T09:18:59.414Z,946.29
2023-03-07T09:19:54.366Z,946.29
2023-03-07T09:20:49.581Z,946.29
2023-03-07T09:21:44.650Z,946.29
2023-03-07T09:22:39.688Z,946.24
2023-03-07T09:23:36.675Z,946.22
2023-03-07T09:24:31.748Z,946.20
2023-03-07T09:25:26.849Z,946.22
2023-03-07T09:26:21.971Z,946.25
2023-03-07T09:27:16.964Z,946.31
2023-03-07T09:28:11.996Z,946.33
2023-03-07T09:29:07.020Z,946.27
2023-03-07T09:30:02.015Z,946.25
2023-03-07T09:30:57.209Z,946.29
2023-03-07T09:31:52.521Z,946.27
2023-03-07T09:32:47.818Z,946.24
2023-03-07T09:33:45.680Z,946.20
2023-03-07T09:34:39.435Z,946.24
2023-03-07T09:35:34.689Z,946.25
2023-03-07T09:36:30.272Z,946.20
2023-03-07T09:37:26.231Z,946.22
2023-03-07T09:38:21.608Z,946.18
2023-03-07T09:39:16.979Z,946.22
2023-03-07T09:40:12.478Z,946.10
2023-03-07T09:41:07.651Z,946.18
2023-03-07T09:42:02.506Z,946.10
2023-03-07T09:42:57.485Z,946.10
2023-03-07T09:43:52.757Z,946.08
2023-03-07T09:44:47.647Z,946.18
2023-03-07T09:45:42.971Z,946.20
2023-03-07T09:46:37.747Z,946.06
2023-03-07T09:47:32.818Z,946.08
2023-03-07T09:48:27.844Z,946.02
2023-03-07T09:49:22.862Z,946.00
2023-03-07T09:50:18.019Z,946.02
2023-03-07T09:51:13.728Z,946.04
2023-03-07T09:52:10.345Z,945.98
2023-03-07T09:53:04.903Z,946.02
2023-03-07T09:54:00.468Z,945.96
2023-03-07T09:54:56.192Z,945.92
2023-03-07T09:55:51.762Z,945.92
2023-03-07T09:56:47.324Z,945.96
2023-03-07T09:57:42.908Z,945.98
2023-03-07T09:58:38.440Z,945.90
2023-03-07T09:59:34.344Z,945.88
2023-03-07T10:00:29.838Z,945.86
2023-03-07T10:01:25.520Z,945.86
2023-03-07T10:02:21.523Z,945.88
2023-03-07T10:03:17.064Z,945.88
2023-03-07T10:04:13.155Z,945.84
2023-03-07T10:05:08.477Z,945.84
2023-03-07T10:06:04.059Z,945.82
2023-03-07T10:06:59.799Z,945.78
2023-03-07T10:07:55.339Z,945.72
2023-03-07T10:08:51.357Z,945.69
2023-03-07T10:09:46.531Z,945.71
2023-03-07T10:10:42.102Z,945.72
2023-03-07T10:11:37.966Z,945.65
2023-03-07T10:12:33.305Z,945.63
2023-03-07T10:13:28.778Z,945.63
2023-03-07T10:14:25.203Z,945.59
2023-03-07T10:15:20.588Z,945.53
2023-03-07T10:16:16.714Z,945.61
2023-03-07T10:17:12.108Z,945.65
2023-03-07T10:18:07.520Z,945.61
2023-03-07T10:19:03.458Z,945.61
2023-03-07T10:19:58.797Z,945.63
2023-03-07T10:20:54.871Z,945.59
2023-03-07T10:21:50.253Z,945.55
2023-03-07T10:22:45.629Z,945.53
2023-03-07T10:23:41.523Z,945.59
2023-03-07T10:24:37.202Z,945.53
2023-03-07T10:25:32.684Z,945.51
2023-03-07T10:26:29.380Z,945.55
2023-03-07T10:27:24.583Z,945.51
2023-03-07T10:28:20.516Z,945.51
2023-03-07T10:29:15.866Z,945.49
2023-03-07T10:30:11.360Z,945.47
2023-03-07T10:31:07.348Z,945.49
2023-03-07T10:32:02.929Z,945.45
2023-03-07T10:32:58.757Z,945.43
2023-03-07T10:33:54.098Z,945.47
2023-03-07T10:34:49.434Z,945.45
2023-03-07T10:35:45.486Z,945.43
2023-03-07T10:36:40.950Z,945.41
2023-03-07T10:37:36.303Z,945.39
2023-03-07T10:38:32.974Z,945.31
2023-03-07T10:39:28.342Z,945.31
2023-03-07T10:40:24.366Z,945.31
2023-03-07T10:41:19.982Z,945.27
2023-03-07T10:42:15.588Z,945.27
2023-03-07T10:43:11.158Z,945.25
2023-03-07T10:44:06.802Z,945.31
2023-03-07T10:45:02.780Z,945.33
2023-03-07T10:45:58.070Z,945.31
2023-03-07T10:46:56.492Z,945.37
2023-03-07T10:47:49.169Z,945.29
2023-03-07T10:48:44.281Z,945.33
2023-03-07T10:49:39.332Z,945.31
2023-03-07T10:50:39.255Z,945.33
2023-03-07T10:51:34.614Z,945.29
2023-03-07T10:52:30.095Z,945.35
2023-03-07T10:53:25.868Z,945.33
2023-03-07T10:54:21.261Z,945.33
2023-03-07T10:55:16.692Z,945.31
2023-03-07T10:56:13.071Z,945.29
2023-03-07T10:57:08.838Z,945.27
2023-03-07T10:58:04.580Z,945.25
2023-03-07T10:58:59.863Z,945.25
2023-03-07T10:59:55.492Z,945.24
2023-03-07T11:00:51.566Z,945.24
2023-03-07T11:01:46.953Z,945.18
2023-03-07T11:02:42.719Z,945.10
2023-03-07T11:03:52.181Z,945.08
2023-03-07T11:04:34.793Z,945.08
2023-03-07T11:05:29.086Z,945.10
2023-03-07T11:06:24.515Z,945.14
2023-03-07T11:07:20.471Z,945.08
2023-03-07T11:08:15.862Z,945.08
2023-03-07T11:09:11.422Z,945.10
2023-03-07T11:10:06.979Z,945.06
2023-03-07T11:11:02.483Z,945.08
2023-03-07T11:11:58.087Z,945.04
2023-03-07T11:12:53.757Z,945.02
2023-03-07T11:13:48.819Z,945.00
2023-03-07T11:14:43.952Z,944.98
2023-03-07T11:15:39.023Z,944.98
2023-03-07T11:16:34.384Z,944.94
2023-03-07T11:17:29.035Z,944.94
2023-03-07T11:18:24.115Z,944.94
2023-03-07T11:19:19.172Z,944.84
2023-03-07T11:20:14.246Z,944.76
2023-03-07T11:21:09.343Z,944.84
2023-03-07T11:22:04.480Z,944.80
2023-03-07T11:22:59.511Z,944.80
2023-03-07T11:23:54.654Z,944.76
2023-03-07T11:24:50.002Z,944.80
2023-03-07T11:25:46.309Z,944.80
2023-03-07T11:26:41.781Z,944.78
2023-03-07T11:27:37.550Z,944.78
2023-03-07T11:28:33.050Z,944.76
2023-03-07T11:29:28.774Z,944.78
2023-03-07T11:30:24.407Z,944.78
2023-03-07T11:31:19.894Z,944.76
2023-03-07T11:32:15.645Z,944.76